sensor_id;sensor_type;location;lat;lon;timestamp;P1;durP1;ratioP1;P2;durP2;ratioP2
32693;SDS011;19084;44.716;10.218;2022-10-31T00:00:44;14.27;;;4.88;;
32693;SDS011;19084;44.716;10.218;2022-10-31T00:03:17;12.38;;;5.10;;
32693;SDS011;19084;44.716;10.218;2022-10-31T00:05:50;10.75;;;4.47;;
32693;SDS011;19084;44.716;10.218;2022-10-31T00:08:23;11.77;;;4.90;;
32693;SDS011;19084;44.716;10.218;2022-10-31T00:10:55;10.82;;;4.68;;
32693;SDS011;19084;44.716;10.218;2022-10-31T00:13:28;9.45;;;4.80;;
32693;SDS011;19084;44.716;10.218;2022-10-31T00:16:01;14.73;;;4.47;;
32693;SDS011;19084;44.716;10.218;2022-10-31T00:18:33;8.80;;;3.88;;
32693;SDS011;19084;44.716;10.218;2022-10-31T00:21:06;11.70;;;4.70;;
32693;SDS011;19084;44.716;10.218;2022-10-31T00:23:38;10.20;;;4.03;;
32693;SDS011;19084;44.716;10.218;2022-10-31T00:26:11;8.93;;;3.90;;
32693;SDS011;19084;44.716;10.218;2022-10-31T00:28:44;9.40;;;3.97;;
32693;SDS011;19084;44.716;10.218;2022-10-31T00:31:17;12.75;;;4.45;;
32693;SDS011;19084;44.716;10.218;2022-10-31T00:33:49;10.90;;;4.13;;
32693;SDS011;19084;44.716;10.218;2022-10-31T00:36:22;7.85;;;3.70;;
32693;SDS011;19084;44.716;10.218;2022-10-31T00:38:55;9.50;;;4.00;;
32693;SDS011;19084;44.716;10.218;2022-10-31T00:41:30;9.00;;;3.97;;
32693;SDS011;19084;44.716;10.218;2022-10-31T00:44:02;11.75;;;4.20;;
32693;SDS011;19084;44.716;10.218;2022-10-31T00:46:35;7.65;;;3.83;;
32693;SDS011;19084;44.716;10.218;2022-10-31T00:49:08;8.93;;;3.53;;
32693;SDS011;19084;44.716;10.218;2022-10-31T00:51:40;13.15;;;3.58;;
32693;SDS011;19084;44.716;10.218;2022-10-31T00:54:13;7.75;;;3.42;;
32693;SDS011;19084;44.716;10.218;2022-10-31T00:56:46;10.00;;;3.25;;
32693;SDS011;19084;44.716;10.218;2022-10-31T00:59:18;12.38;;;3.65;;
32693;SDS011;19084;44.716;10.218;2022-10-31T01:01:51;10.68;;;3.05;;
32693;SDS011;19084;44.716;10.218;2022-10-31T01:04:26;11.52;;;3.25;;
32693;SDS011;19084;44.716;10.218;2022-10-31T01:07:00;15.80;;;3.42;;
32693;SDS011;19084;44.716;10.218;2022-10-31T01:09:33;8.20;;;3.10;;
32693;SDS011;19084;44.716;10.218;2022-10-31T01:12:06;12.43;;;3.28;;
32693;SDS011;19084;44.716;10.218;2022-10-31T01:14:42;8.45;;;3.30;;
32693;SDS011;19084;44.716;10.218;2022-10-31T01:17:16;13.05;;;3.40;;
32693;SDS011;19084;44.716;10.218;2022-10-31T01:19:51;6.90;;;2.80;;
32693;SDS011;19084;44.716;10.218;2022-10-31T01:22:23;12.88;;;3.40;;
32693;SDS011;19084;44.716;10.218;2022-10-31T01:24:56;12.23;;;3.20;;
32693;SDS011;19084;44.716;10.218;2022-10-31T01:27:30;8.13;;;3.03;;
32693;SDS011;19084;44.716;10.218;2022-10-31T01:30:04;11.20;;;3.13;;
32693;SDS011;19084;44.716;10.218;2022-10-31T01:32:37;15.43;;;3.70;;
32693;SDS011;19084;44.716;10.218;2022-10-31T01:35:10;8.90;;;3.15;;
32693;SDS011;19084;44.716;10.218;2022-10-31T01:37:42;9.35;;;3.10;;
32693;SDS011;19084;44.716;10.218;2022-10-31T01:40:15;7.70;;;3.33;;
32693;SDS011;19084;44.716;10.218;2022-10-31T01:42:48;8.73;;;3.47;;
32693;SDS011;19084;44.716;10.218;2022-10-31T01:45:20;8.82;;;3.17;;
32693;SDS011;19084;44.716;10.218;2022-10-31T01:47:54;7.38;;;3.35;;
32693;SDS011;19084;44.716;10.218;2022-10-31T01:50:30;9.80;;;3.00;;
32693;SDS011;19084;44.716;10.218;2022-10-31T01:53:06;10.93;;;3.10;;
32693;SDS011;19084;44.716;10.218;2022-10-31T01:55:42;9.38;;;2.97;;
32693;SDS011;19084;44.716;10.218;2022-10-31T01:58:20;15.43;;;3.50;;
32693;SDS011;19084;44.716;10.218;2022-10-31T02:00:58;9.02;;;3.03;;
32693;SDS011;19084;44.716;10.218;2022-10-31T02:03:39;9.38;;;3.00;;
32693;SDS011;19084;44.716;10.218;2022-10-31T02:06:17;8.38;;;3.38;;
32693;SDS011;19084;44.716;10.218;2022-10-31T02:09:07;9.80;;;3.47;;
32693;SDS011;19084;44.716;10.218;2022-10-31T02:11:42;10.18;;;3.60;;
32693;SDS011;19084;44.716;10.218;2022-10-31T02:14:16;11.52;;;3.53;;
32693;SDS011;19084;44.716;10.218;2022-10-31T02:16:51;12.20;;;3.55;;
32693;SDS011;19084;44.716;10.218;2022-10-31T02:27:55;10.40;;;3.63;;
32693;SDS011;19084;44.716;10.218;2022-10-31T02:30:41;10.32;;;3.30;;
32693;SDS011;19084;44.716;10.218;2022-10-31T02:36:04;10.90;;;3.00;;
32693;SDS011;19084;44.716;10.218;2022-10-31T02:41:52;13.32;;;4.18;;
32693;SDS011;19084;44.716;10.218;2022-10-31T02:47:06;11.75;;;3.38;;
32693;SDS011;19084;44.716;10.218;2022-10-31T02:49:45;11.38;;;3.80;;
32693;SDS011;19084;44.716;10.218;2022-10-31T02:52:26;12.25;;;3.83;;
32693;SDS011;19084;44.716;10.218;2022-10-31T02:55:10;7.32;;;3.30;;
32693;SDS011;19084;44.716;10.218;2022-10-31T02:58:07;11.27;;;3.15;;
32693;SDS011;19084;44.716;10.218;2022-10-31T03:00:51;8.30;;;3.70;;
32693;SDS011;19084;44.716;10.218;2022-10-31T03:06:35;11.15;;;3.65;;
32693;SDS011;19084;44.716;10.218;2022-10-31T03:09:27;10.02;;;3.15;;
32693;SDS011;19084;44.716;10.218;2022-10-31T03:12:11;15.20;;;4.22;;
32693;SDS011;19084;44.716;10.218;2022-10-31T03:20:40;8.95;;;4.10;;
32693;SDS011;19084;44.716;10.218;2022-10-31T03:23:17;8.63;;;3.63;;
32693;SDS011;19084;44.716;10.218;2022-10-31T03:25:54;7.55;;;2.97;;
32693;SDS011;19084;44.716;10.218;2022-10-31T03:28:33;8.65;;;3.35;;
32693;SDS011;19084;44.716;10.218;2022-10-31T03:31:09;9.38;;;3.28;;
32693;SDS011;19084;44.716;10.218;2022-10-31T03:33:45;8.23;;;3.47;;
32693;SDS011;19084;44.716;10.218;2022-10-31T03:36:19;9.87;;;3.80;;
32693;SDS011;19084;44.716;10.218;2022-10-31T03:38:53;7.95;;;3.55;;
32693;SDS011;19084;44.716;10.218;2022-10-31T03:41:32;10.52;;;3.50;;
32693;SDS011;19084;44.716;10.218;2022-10-31T03:44:12;12.55;;;3.70;;
32693;SDS011;19084;44.716;10.218;2022-10-31T03:46:53;8.07;;;3.30;;
32693;SDS011;19084;44.716;10.218;2022-10-31T03:49:26;10.45;;;3.70;;
32693;SDS011;19084;44.716;10.218;2022-10-31T03:54:57;14.02;;;3.63;;
32693;SDS011;19084;44.716;10.218;2022-10-31T03:57:38;8.18;;;3.60;;
32693;SDS011;19084;44.716;10.218;2022-10-31T04:00:18;8.15;;;3.38;;
32693;SDS011;19084;44.716;10.218;2022-10-31T04:03:00;10.77;;;3.25;;
32693;SDS011;19084;44.716;10.218;2022-10-31T04:05:39;8.90;;;3.35;;
32693;SDS011;19084;44.716;10.218;2022-10-31T04:08:15;8.65;;;3.17;;
32693;SDS011;19084;44.716;10.218;2022-10-31T04:10:51;11.05;;;3.35;;
32693;SDS011;19084;44.716;10.218;2022-10-31T04:16:07;8.90;;;3.10;;
32693;SDS011;19084;44.716;10.218;2022-10-31T04:18:46;9.10;;;2.80;;
32693;SDS011;19084;44.716;10.218;2022-10-31T04:21:25;11.90;;;3.20;;
32693;SDS011;19084;44.716;10.218;2022-10-31T04:24:01;9.77;;;3.22;;
32693;SDS011;19084;44.716;10.218;2022-10-31T04:26:34;10.05;;;3.20;;
32693;SDS011;19084;44.716;10.218;2022-10-31T04:29:07;6.97;;;2.60;;
32693;SDS011;19084;44.716;10.218;2022-10-31T04:31:40;8.93;;;2.85;;
32693;SDS011;19084;44.716;10.218;2022-10-31T04:34:13;8.27;;;2.90;;
32693;SDS011;19084;44.716;10.218;2022-10-31T04:36:47;9.55;;;2.92;;
32693;SDS011;19084;44.716;10.218;2022-10-31T04:39:21;7.90;;;3.43;;
32693;SDS011;19084;44.716;10.218;2022-10-31T04:42:17;7.72;;;3.30;;
32693;SDS011;19084;44.716;10.218;2022-10-31T04:44:50;14.15;;;3.38;;
32693;SDS011;19084;44.716;10.218;2022-10-31T04:47:23;7.72;;;3.08;;
32693;SDS011;19084;44.716;10.218;2022-10-31T04:49:56;9.75;;;3.35;;
32693;SDS011;19084;44.716;10.218;2022-10-31T04:52:29;7.88;;;3.30;;
32693;SDS011;19084;44.716;10.218;2022-10-31T04:55:02;10.10;;;3.08;;
32693;SDS011;19084;44.716;10.218;2022-10-31T04:57:54;10.05;;;3.30;;
32693;SDS011;19084;44.716;10.218;2022-10-31T05:00:29;9.45;;;2.88;;
32693;SDS011;19084;44.716;10.218;2022-10-31T05:03:01;6.18;;;2.80;;
32693;SDS011;19084;44.716;10.218;2022-10-31T05:05:34;9.48;;;3.08;;
32693;SDS011;19084;44.716;10.218;2022-10-31T05:08:07;8.57;;;2.78;;
32693;SDS011;19084;44.716;10.218;2022-10-31T05:10:41;7.28;;;2.83;;
32693;SDS011;19084;44.716;10.218;2022-10-31T05:13:13;8.07;;;2.90;;
32693;SDS011;19084;44.716;10.218;2022-10-31T05:16:07;10.88;;;3.20;;
32693;SDS011;19084;44.716;10.218;2022-10-31T05:18:56;8.68;;;3.08;;
32693;SDS011;19084;44.716;10.218;2022-10-31T05:21:43;8.93;;;3.03;;
32693;SDS011;19084;44.716;10.218;2022-10-31T05:24:16;8.43;;;2.83;;
32693;SDS011;19084;44.716;10.218;2022-10-31T05:26:51;8.50;;;3.20;;
32693;SDS011;19084;44.716;10.218;2022-10-31T05:29:24;8.18;;;3.38;;
32693;SDS011;19084;44.716;10.218;2022-10-31T05:31:57;9.32;;;2.83;;
32693;SDS011;19084;44.716;10.218;2022-10-31T05:34:49;10.43;;;3.33;;
32693;SDS011;19084;44.716;10.218;2022-10-31T05:37:37;9.82;;;3.78;;
32693;SDS011;19084;44.716;10.218;2022-10-31T05:40:10;16.10;;;5.72;;
32693;SDS011;19084;44.716;10.218;2022-10-31T05:42:45;8.75;;;3.75;;
32693;SDS011;19084;44.716;10.218;2022-10-31T05:45:18;9.15;;;2.90;;
32693;SDS011;19084;44.716;10.218;2022-10-31T05:47:59;6.40;;;2.58;;
32693;SDS011;19084;44.716;10.218;2022-10-31T05:50:50;6.60;;;2.65;;
32693;SDS011;19084;44.716;10.218;2022-10-31T05:53:24;9.30;;;3.30;;
32693;SDS011;19084;44.716;10.218;2022-10-31T05:55:56;8.70;;;2.67;;
32693;SDS011;19084;44.716;10.218;2022-10-31T05:58:29;7.85;;;3.28;;
32693;SDS011;19084;44.716;10.218;2022-10-31T06:01:07;8.98;;;3.08;;
32693;SDS011;19084;44.716;10.218;2022-10-31T06:03:40;9.85;;;3.70;;
32693;SDS011;19084;44.716;10.218;2022-10-31T06:06:13;12.30;;;3.67;;
32693;SDS011;19084;44.716;10.218;2022-10-31T06:08:46;7.57;;;2.53;;
32693;SDS011;19084;44.716;10.218;2022-10-31T06:11:23;10.88;;;3.00;;
32693;SDS011;19084;44.716;10.218;2022-10-31T06:14:05;8.82;;;2.60;;
32693;SDS011;19084;44.716;10.218;2022-10-31T06:31:51;7.88;;;2.60;;
32693;SDS011;19084;44.716;10.218;2022-10-31T06:34:24;12.40;;;3.70;;
32693;SDS011;19084;44.716;10.218;2022-10-31T06:36:57;11.30;;;3.40;;
32693;SDS011;19084;44.716;10.218;2022-10-31T06:39:31;10.33;;;3.80;;
32693;SDS011;19084;44.716;10.218;2022-10-31T06:42:04;9.55;;;3.30;;
32693;SDS011;19084;44.716;10.218;2022-10-31T06:44:39;12.57;;;3.05;;
32693;SDS011;19084;44.716;10.218;2022-10-31T06:47:27;9.48;;;2.83;;
32693;SDS011;19084;44.716;10.218;2022-10-31T06:50:05;7.60;;;2.63;;
32693;SDS011;19084;44.716;10.218;2022-10-31T06:52:38;8.07;;;2.40;;
32693;SDS011;19084;44.716;10.218;2022-10-31T06:55:12;11.18;;;2.50;;
32693;SDS011;19084;44.716;10.218;2022-10-31T06:57:49;12.05;;;2.90;;
32693;SDS011;19084;44.716;10.218;2022-10-31T07:00:23;14.75;;;3.30;;
32693;SDS011;19084;44.716;10.218;2022-10-31T07:03:07;14.30;;;5.85;;
32693;SDS011;19084;44.716;10.218;2022-10-31T07:05:43;17.67;;;10.18;;
32693;SDS011;19084;44.716;10.218;2022-10-31T07:08:16;13.23;;;6.68;;
32693;SDS011;19084;44.716;10.218;2022-10-31T07:10:51;12.80;;;3.80;;
32693;SDS011;19084;44.716;10.218;2022-10-31T07:13:26;9.73;;;2.42;;
32693;SDS011;19084;44.716;10.218;2022-10-31T07:16:10;6.55;;;2.28;;
32693;SDS011;19084;44.716;10.218;2022-10-31T07:18:45;8.13;;;2.25;;
32693;SDS011;19084;44.716;10.218;2022-10-31T07:21:18;9.23;;;2.50;;
32693;SDS011;19084;44.716;10.218;2022-10-31T07:23:51;10.93;;;2.47;;
32693;SDS011;19084;44.716;10.218;2022-10-31T07:26:40;7.00;;;2.55;;
32693;SDS011;19084;44.716;10.218;2022-10-31T07:29:14;9.48;;;2.45;;
32693;SDS011;19084;44.716;10.218;2022-10-31T07:31:47;7.32;;;2.17;;
32693;SDS011;19084;44.716;10.218;2022-10-31T07:34:26;8.45;;;2.30;;
32693;SDS011;19084;44.716;10.218;2022-10-31T07:37:18;9.90;;;2.10;;
32693;SDS011;19084;44.716;10.218;2022-10-31T07:39:52;7.88;;;2.20;;
32693;SDS011;19084;44.716;10.218;2022-10-31T07:42:25;9.63;;;2.42;;
32693;SDS011;19084;44.716;10.218;2022-10-31T07:44:58;7.45;;;2.50;;
32693;SDS011;19084;44.716;10.218;2022-10-31T07:47:40;7.72;;;2.50;;
32693;SDS011;19084;44.716;10.218;2022-10-31T07:50:29;7.25;;;2.40;;
32693;SDS011;19084;44.716;10.218;2022-10-31T07:53:20;8.75;;;2.88;;
32693;SDS011;19084;44.716;10.218;2022-10-31T07:55:57;10.10;;;3.40;;
32693;SDS011;19084;44.716;10.218;2022-10-31T07:58:34;9.57;;;3.40;;
32693;SDS011;19084;44.716;10.218;2022-10-31T08:01:06;10.15;;;3.58;;
32693;SDS011;19084;44.716;10.218;2022-10-31T08:03:51;9.43;;;3.57;;
32693;SDS011;19084;44.716;10.218;2022-10-31T08:06:39;13.20;;;5.20;;
32693;SDS011;19084;44.716;10.218;2022-10-31T08:09:27;11.25;;;4.90;;
32693;SDS011;19084;44.716;10.218;2022-10-31T08:12:03;11.68;;;4.93;;
32693;SDS011;19084;44.716;10.218;2022-10-31T08:14:38;14.60;;;4.75;;
32693;SDS011;19084;44.716;10.218;2022-10-31T08:17:11;13.15;;;5.53;;
32693;SDS011;19084;44.716;10.218;2022-10-31T08:19:52;13.77;;;4.68;;
32693;SDS011;19084;44.716;10.218;2022-10-31T08:22:30;14.18;;;4.25;;
32693;SDS011;19084;44.716;10.218;2022-10-31T08:25:05;11.90;;;4.90;;
32693;SDS011;19084;44.716;10.218;2022-10-31T08:27:40;15.27;;;4.20;;
32693;SDS011;19084;44.716;10.218;2022-10-31T08:30:21;9.90;;;3.80;;
32693;SDS011;19084;44.716;10.218;2022-10-31T08:33:16;10.02;;;4.10;;
32693;SDS011;19084;44.716;10.218;2022-10-31T08:36:10;11.60;;;4.47;;
32693;SDS011;19084;44.716;10.218;2022-10-31T08:38:58;15.25;;;5.55;;
32693;SDS011;19084;44.716;10.218;2022-10-31T08:41:34;17.38;;;5.78;;
32693;SDS011;19084;44.716;10.218;2022-10-31T08:44:07;8.90;;;4.22;;
32693;SDS011;19084;44.716;10.218;2022-10-31T08:46:41;10.25;;;5.20;;
32693;SDS011;19084;44.716;10.218;2022-10-31T08:49:14;10.85;;;4.85;;
32693;SDS011;19084;44.716;10.218;2022-10-31T08:51:48;14.23;;;4.95;;
32693;SDS011;19084;44.716;10.218;2022-10-31T08:54:21;10.93;;;4.60;;
32693;SDS011;19084;44.716;10.218;2022-10-31T08:56:55;16.25;;;5.53;;
32693;SDS011;19084;44.716;10.218;2022-10-31T08:59:43;23.65;;;11.32;;
32693;SDS011;19084;44.716;10.218;2022-10-31T09:02:24;23.48;;;13.15;;
32693;SDS011;19084;44.716;10.218;2022-10-31T09:05:01;21.58;;;10.52;;
32693;SDS011;19084;44.716;10.218;2022-10-31T09:07:34;26.83;;;12.45;;
32693;SDS011;19084;44.716;10.218;2022-10-31T09:10:07;25.80;;;13.93;;
32693;SDS011;19084;44.716;10.218;2022-10-31T09:12:43;25.83;;;14.55;;
32693;SDS011;19084;44.716;10.218;2022-10-31T09:15:37;24.05;;;12.70;;
32693;SDS011;19084;44.716;10.218;2022-10-31T09:18:21;35.53;;;16.90;;
32693;SDS011;19084;44.716;10.218;2022-10-31T09:21:03;27.23;;;13.48;;
32693;SDS011;19084;44.716;10.218;2022-10-31T09:23:36;27.45;;;15.55;;
32693;SDS011;19084;44.716;10.218;2022-10-31T09:26:08;34.33;;;17.17;;
32693;SDS011;19084;44.716;10.218;2022-10-31T09:28:45;32.83;;;17.13;;
32693;SDS011;19084;44.716;10.218;2022-10-31T09:31:21;34.60;;;17.10;;
32693;SDS011;19084;44.716;10.218;2022-10-31T09:34:09;43.72;;;17.33;;
32693;SDS011;19084;44.716;10.218;2022-10-31T09:36:48;30.33;;;16.40;;
32693;SDS011;19084;44.716;10.218;2022-10-31T09:39:24;34.95;;;16.67;;
32693;SDS011;19084;44.716;10.218;2022-10-31T09:45:21;25.42;;;14.13;;
32693;SDS011;19084;44.716;10.218;2022-10-31T09:48:35;30.40;;;14.23;;
32693;SDS011;19084;44.716;10.218;2022-10-31T09:51:21;23.60;;;14.23;;
32693;SDS011;19084;44.716;10.218;2022-10-31T09:54:12;30.83;;;14.13;;
32693;SDS011;19084;44.716;10.218;2022-10-31T09:56:47;21.95;;;12.88;;
32693;SDS011;19084;44.716;10.218;2022-10-31T09:59:25;26.15;;;12.32;;
32693;SDS011;19084;44.716;10.218;2022-10-31T10:04:43;20.33;;;11.80;;
32693;SDS011;19084;44.716;10.218;2022-10-31T10:10:50;25.10;;;13.00;;
32693;SDS011;19084;44.716;10.218;2022-10-31T10:30:39;21.48;;;10.70;;
32693;SDS011;19084;44.716;10.218;2022-10-31T10:33:20;28.00;;;10.70;;
32693;SDS011;19084;44.716;10.218;2022-10-31T10:36:04;59.53;;;12.02;;
32693;SDS011;19084;44.716;10.218;2022-10-31T10:41:32;24.60;;;10.32;;
32693;SDS011;19084;44.716;10.218;2022-10-31T10:44:07;20.17;;;10.60;;
32693;SDS011;19084;44.716;10.218;2022-10-31T10:46:45;22.05;;;10.13;;
32693;SDS011;19084;44.716;10.218;2022-10-31T10:49:45;18.42;;;10.05;;
32693;SDS011;19084;44.716;10.218;2022-10-31T10:55:24;19.85;;;10.27;;
32693;SDS011;19084;44.716;10.218;2022-10-31T10:58:09;21.23;;;9.85;;
32693;SDS011;19084;44.716;10.218;2022-10-31T11:00:43;21.15;;;9.32;;
32693;SDS011;19084;44.716;10.218;2022-10-31T11:03:18;25.85;;;10.68;;
32693;SDS011;19084;44.716;10.218;2022-10-31T11:05:52;18.75;;;9.32;;
32693;SDS011;19084;44.716;10.218;2022-10-31T11:08:26;19.08;;;10.35;;
32693;SDS011;19084;44.716;10.218;2022-10-31T11:13:37;23.60;;;10.90;;
32693;SDS011;19084;44.716;10.218;2022-10-31T11:16:14;23.85;;;11.30;;
32693;SDS011;19084;44.716;10.218;2022-10-31T11:19:06;23.33;;;11.70;;
32693;SDS011;19084;44.716;10.218;2022-10-31T11:21:50;22.52;;;12.07;;
32693;SDS011;19084;44.716;10.218;2022-10-31T11:24:25;23.58;;;12.18;;
32693;SDS011;19084;44.716;10.218;2022-10-31T11:27:05;20.30;;;12.38;;
32693;SDS011;19084;44.716;10.218;2022-10-31T11:29:49;23.23;;;12.75;;
32693;SDS011;19084;44.716;10.218;2022-10-31T11:32:30;27.27;;;13.90;;
32693;SDS011;19084;44.716;10.218;2022-10-31T11:35:09;24.42;;;12.50;;
32693;SDS011;19084;44.716;10.218;2022-10-31T11:37:43;27.38;;;13.18;;
32693;SDS011;19084;44.716;10.218;2022-10-31T11:40:20;26.45;;;13.02;;
32693;SDS011;19084;44.716;10.218;2022-10-31T11:42:55;23.25;;;13.32;;
32693;SDS011;19084;44.716;10.218;2022-10-31T11:48:14;21.73;;;12.25;;
32693;SDS011;19084;44.716;10.218;2022-10-31T11:50:52;21.50;;;13.07;;
32693;SDS011;19084;44.716;10.218;2022-10-31T11:53:30;32.80;;;14.13;;
32693;SDS011;19084;44.716;10.218;2022-10-31T11:56:13;27.17;;;13.65;;
32693;SDS011;19084;44.716;10.218;2022-10-31T12:01:39;30.40;;;14.52;;
32693;SDS011;19084;44.716;10.218;2022-10-31T12:04:16;23.20;;;13.40;;
32693;SDS011;19084;44.716;10.218;2022-10-31T12:06:49;29.23;;;14.65;;
32693;SDS011;19084;44.716;10.218;2022-10-31T12:20:52;24.42;;;14.00;;
32693;SDS011;19084;44.716;10.218;2022-10-31T12:26:09;26.63;;;15.10;;
32693;SDS011;19084;44.716;10.218;2022-10-31T12:29:06;32.83;;;15.07;;
32693;SDS011;19084;44.716;10.218;2022-10-31T12:51:08;25.20;;;12.88;;
32693;SDS011;19084;44.716;10.218;2022-10-31T12:57:01;25.05;;;13.85;;
32693;SDS011;19084;44.716;10.218;2022-10-31T12:59:42;21.70;;;13.80;;
32693;SDS011;19084;44.716;10.218;2022-10-31T13:02:27;30.83;;;13.15;;
32693;SDS011;19084;44.716;10.218;2022-10-31T13:08:04;26.77;;;13.07;;
32693;SDS011;19084;44.716;10.218;2022-10-31T13:10:43;27.08;;;12.68;;
32693;SDS011;19084;44.716;10.218;2022-10-31T13:16:27;21.90;;;13.48;;
32693;SDS011;19084;44.716;10.218;2022-10-31T13:19:08;27.05;;;12.05;;
32693;SDS011;19084;44.716;10.218;2022-10-31T13:22:00;22.98;;;11.07;;
32693;SDS011;19084;44.716;10.218;2022-10-31T13:27:29;25.90;;;12.48;;
32693;SDS011;19084;44.716;10.218;2022-10-31T13:30:19;20.33;;;11.43;;
32693;SDS011;19084;44.716;10.218;2022-10-31T13:38:38;21.40;;;11.07;;
32693;SDS011;19084;44.716;10.218;2022-10-31T13:44:08;21.95;;;11.50;;
32693;SDS011;19084;44.716;10.218;2022-10-31T13:46:46;18.85;;;10.02;;
32693;SDS011;19084;44.716;10.218;2022-10-31T13:49:21;21.60;;;9.85;;
32693;SDS011;19084;44.716;10.218;2022-10-31T13:54:46;20.27;;;9.43;;
32693;SDS011;19084;44.716;10.218;2022-10-31T14:03:16;23.63;;;10.35;;
32693;SDS011;19084;44.716;10.218;2022-10-31T14:06:11;19.77;;;9.90;;
32693;SDS011;19084;44.716;10.218;2022-10-31T14:08:48;19.63;;;10.60;;
32693;SDS011;19084;44.716;10.218;2022-10-31T14:11:24;20.30;;;10.32;;
32693;SDS011;19084;44.716;10.218;2022-10-31T14:14:11;25.48;;;11.13;;
32693;SDS011;19084;44.716;10.218;2022-10-31T14:16:44;19.10;;;9.80;;
32693;SDS011;19084;44.716;10.218;2022-10-31T14:19:26;20.58;;;10.90;;
32693;SDS011;19084;44.716;10.218;2022-10-31T14:21:59;18.85;;;10.15;;
32693;SDS011;19084;44.716;10.218;2022-10-31T14:24:33;23.52;;;10.05;;
32693;SDS011;19084;44.716;10.218;2022-10-31T14:29:48;20.77;;;9.70;;
32693;SDS011;19084;44.716;10.218;2022-10-31T14:32:22;16.35;;;8.82;;
32693;SDS011;19084;44.716;10.218;2022-10-31T14:34:57;22.20;;;9.85;;
32693;SDS011;19084;44.716;10.218;2022-10-31T14:45:53;16.55;;;9.07;;
32693;SDS011;19084;44.716;10.218;2022-10-31T14:48:38;20.73;;;8.55;;
32693;SDS011;19084;44.716;10.218;2022-10-31T14:51:36;25.25;;;9.35;;
32693;SDS011;19084;44.716;10.218;2022-10-31T14:54:14;22.88;;;9.43;;
32693;SDS011;19084;44.716;10.218;2022-10-31T14:56:56;18.25;;;7.90;;
32693;SDS011;19084;44.716;10.218;2022-10-31T14:59:42;21.30;;;8.95;;
32693;SDS011;19084;44.716;10.218;2022-10-31T15:02:26;19.67;;;8.45;;
32693;SDS011;19084;44.716;10.218;2022-10-31T15:05:07;19.83;;;9.40;;
32693;SDS011;19084;44.716;10.218;2022-10-31T15:07:50;19.98;;;7.07;;
32693;SDS011;19084;44.716;10.218;2022-10-31T15:10:29;19.40;;;8.70;;
32693;SDS011;19084;44.716;10.218;2022-10-31T15:15:54;21.88;;;11.55;;
32693;SDS011;19084;44.716;10.218;2022-10-31T15:18:27;22.23;;;10.25;;
32693;SDS011;19084;44.716;10.218;2022-10-31T15:21:01;32.35;;;12.85;;
32693;SDS011;19084;44.716;10.218;2022-10-31T15:23:41;28.50;;;11.38;;
32693;SDS011;19084;44.716;10.218;2022-10-31T15:26:17;24.23;;;11.88;;
32693;SDS011;19084;44.716;10.218;2022-10-31T15:31:33;28.35;;;10.98;;
32693;SDS011;19084;44.716;10.218;2022-10-31T15:34:14;20.88;;;9.43;;
32693;SDS011;19084;44.716;10.218;2022-10-31T15:36:56;21.65;;;9.35;;
32693;SDS011;19084;44.716;10.218;2022-10-31T15:39:29;20.25;;;9.75;;
32693;SDS011;19084;44.716;10.218;2022-10-31T15:42:02;21.42;;;9.40;;
32693;SDS011;19084;44.716;10.218;2022-10-31T15:44:35;22.48;;;8.02;;
32693;SDS011;19084;44.716;10.218;2022-10-31T15:47:16;13.88;;;6.80;;
32693;SDS011;19084;44.716;10.218;2022-10-31T15:49:54;17.60;;;7.78;;
32693;SDS011;19084;44.716;10.218;2022-10-31T15:52:32;14.50;;;6.95;;
32693;SDS011;19084;44.716;10.218;2022-10-31T15:55:15;18.27;;;9.88;;
32693;SDS011;19084;44.716;10.218;2022-10-31T15:57:53;22.88;;;8.45;;
32693;SDS011;19084;44.716;10.218;2022-10-31T16:03:06;18.85;;;7.57;;
32693;SDS011;19084;44.716;10.218;2022-10-31T16:11:14;17.25;;;6.00;;
32693;SDS011;19084;44.716;10.218;2022-10-31T16:13:59;17.33;;;6.65;;
32693;SDS011;19084;44.716;10.218;2022-10-31T16:16:45;16.52;;;6.28;;
32693;SDS011;19084;44.716;10.218;2022-10-31T16:19:24;14.18;;;5.82;;
32693;SDS011;19084;44.716;10.218;2022-10-31T16:24:45;16.75;;;7.05;;
32693;SDS011;19084;44.716;10.218;2022-10-31T16:27:24;14.35;;;6.82;;
32693;SDS011;19084;44.716;10.218;2022-10-31T16:30:00;17.73;;;6.95;;
32693;SDS011;19084;44.716;10.218;2022-10-31T16:32:55;15.80;;;6.55;;
32693;SDS011;19084;44.716;10.218;2022-10-31T16:35:32;17.13;;;7.07;;
32693;SDS011;19084;44.716;10.218;2022-10-31T16:38:07;13.77;;;7.20;;
32693;SDS011;19084;44.716;10.218;2022-10-31T16:40:41;18.45;;;7.20;;
32693;SDS011;19084;44.716;10.218;2022-10-31T16:43:15;16.55;;;7.72;;
32693;SDS011;19084;44.716;10.218;2022-10-31T16:45:50;17.38;;;7.13;;
32693;SDS011;19084;44.716;10.218;2022-10-31T16:48:23;17.17;;;8.43;;
32693;SDS011;19084;44.716;10.218;2022-10-31T16:50:56;18.40;;;7.80;;
32693;SDS011;19084;44.716;10.218;2022-10-31T16:53:29;19.88;;;8.52;;
32693;SDS011;19084;44.716;10.218;2022-10-31T16:56:03;20.63;;;8.45;;
32693;SDS011;19084;44.716;10.218;2022-10-31T16:58:36;24.27;;;8.70;;
32693;SDS011;19084;44.716;10.218;2022-10-31T17:01:09;22.08;;;9.57;;
32693;SDS011;19084;44.716;10.218;2022-10-31T17:03:45;22.42;;;9.50;;
32693;SDS011;19084;44.716;10.218;2022-10-31T17:06:17;18.27;;;9.18;;
32693;SDS011;19084;44.716;10.218;2022-10-31T17:08:51;20.25;;;8.60;;
32693;SDS011;19084;44.716;10.218;2022-10-31T17:11:24;24.42;;;9.60;;
32693;SDS011;19084;44.716;10.218;2022-10-31T17:13:58;24.98;;;11.80;;
32693;SDS011;19084;44.716;10.218;2022-10-31T17:16:31;29.67;;;17.60;;
32693;SDS011;19084;44.716;10.218;2022-10-31T17:19:04;39.55;;;21.48;;
32693;SDS011;19084;44.716;10.218;2022-10-31T17:21:36;40.10;;;21.63;;
32693;SDS011;19084;44.716;10.218;2022-10-31T17:24:11;29.33;;;15.55;;
32693;SDS011;19084;44.716;10.218;2022-10-31T17:26:45;23.80;;;12.70;;
32693;SDS011;19084;44.716;10.218;2022-10-31T17:29:18;24.27;;;11.20;;
32693;SDS011;19084;44.716;10.218;2022-10-31T17:31:51;20.55;;;9.98;;
32693;SDS011;19084;44.716;10.218;2022-10-31T17:34:23;23.48;;;10.35;;
32693;SDS011;19084;44.716;10.218;2022-10-31T17:36:56;21.05;;;10.98;;
32693;SDS011;19084;44.716;10.218;2022-10-31T17:39:30;18.65;;;10.48;;
32693;SDS011;19084;44.716;10.218;2022-10-31T17:42:02;22.80;;;11.38;;
32693;SDS011;19084;44.716;10.218;2022-10-31T17:44:35;23.67;;;11.43;;
32693;SDS011;19084;44.716;10.218;2022-10-31T17:47:08;22.65;;;10.85;;
32693;SDS011;19084;44.716;10.218;2022-10-31T17:49:41;22.65;;;11.70;;
32693;SDS011;19084;44.716;10.218;2022-10-31T17:52:13;26.88;;;12.30;;
32693;SDS011;19084;44.716;10.218;2022-10-31T17:54:46;27.45;;;11.90;;
32693;SDS011;19084;44.716;10.218;2022-10-31T17:57:19;27.00;;;11.55;;
32693;SDS011;19084;44.716;10.218;2022-10-31T17:59:52;29.00;;;11.73;;
32693;SDS011;19084;44.716;10.218;2022-10-31T18:02:24;22.02;;;11.15;;
32693;SDS011;19084;44.716;10.218;2022-10-31T18:04:57;26.65;;;11.65;;
32693;SDS011;19084;44.716;10.218;2022-10-31T18:10:06;25.52;;;11.35;;
32693;SDS011;19084;44.716;10.218;2022-10-31T18:12:39;27.52;;;15.40;;
32693;SDS011;19084;44.716;10.218;2022-10-31T18:15:12;27.95;;;16.15;;
32693;SDS011;19084;44.716;10.218;2022-10-31T18:17:45;20.83;;;12.80;;
32693;SDS011;19084;44.716;10.218;2022-10-31T18:20:18;28.48;;;13.93;;